createdAt,value
2022-08-07T00:01:44.355Z,100753.69
2022-08-07T00:04:05.940Z,100750.06
2022-08-07T00:06:34.024Z,100745.59
2022-08-07T00:09:17.252Z,100736.22
2022-08-07T00:11:56.134Z,100746.75
2022-08-07T00:14:30.347Z,100749.31
2022-08-07T00:16:58.898Z,100765.59
2022-08-07T00:19:59.709Z,100781.66
2022-08-07T00:22:24.848Z,100790.94
2022-08-07T00:25:04.863Z,100806.03
2022-08-07T00:27:51.947Z,100813.31
2022-08-07T00:30:26.735Z,100809.06
2022-08-07T00:32:59.966Z,100818.75
2022-08-07T00:35:29.634Z,100829.84
2022-08-07T00:37:58.734Z,100843.75
2022-08-07T00:40:39.393Z,100831.44
2022-08-07T00:43:58.926Z,100829.44
2022-08-07T00:46:00.359Z,100847.03
2022-08-07T00:48:32.190Z,100843.41
2022-08-07T00:51:00.855Z,100830.56
2022-08-07T00:53:39.338Z,100823.38
2022-08-07T00:56:15.836Z,100823.06
2022-08-07T00:58:43.948Z,100820.34
2022-08-07T01:01:16.009Z,100830.22
2022-08-07T01:03:56.150Z,100834.81
2022-08-07T01:06:26.277Z,100836.72
2022-08-07T01:08:56.191Z,100839.94
2022-08-07T01:12:27.805Z,100835.72
2022-08-07T01:14:15.468Z,100827.94
2022-08-07T01:16:46.801Z,100808.78
2022-08-07T01:19:19.139Z,100820.97
2022-08-07T01:21:53.504Z,100822.94
2022-08-07T01:24:27.729Z,100820.25
2022-08-07T01:26:59.190Z,100813.34
2022-08-07T01:29:33.945Z,100811.72
2022-08-07T01:32:05.397Z,100801.22
2022-08-07T01:34:33.907Z,100807.19
2022-08-07T01:37:09.699Z,100804.81
2022-08-07T01:39:40.876Z,100801.94
2022-08-07T01:42:38.143Z,100802.38
2022-08-07T01:45:09.749Z,100797.47
2022-08-07T01:48:19.744Z,100789.53
2022-08-07T01:50:32.322Z,100784.13
2022-08-07T01:53:01.074Z,100777.81
2022-08-07T01:55:34.610Z,100764.50
2022-08-07T01:58:27.429Z,100762.91
2022-08-07T02:01:09.452Z,100760.28
2022-08-07T02:03:48.955Z,100759.84
2022-08-07T02:06:32.138Z,100759.84
2022-08-07T02:09:04.865Z,100760.81
2022-08-07T02:12:02.690Z,100768.59
2022-08-07T02:14:36.117Z,100773.78
2022-08-07T02:17:13.233Z,100769.06
2022-08-07T02:20:05.034Z,100769.69
2022-08-07T02:22:38.353Z,100759.06
2022-08-07T02:25:17.496Z,100753.38
2022-08-07T02:27:55.746Z,100740.69
2022-08-07T02:30:24.394Z,100746.91
2022-08-07T02:33:04.026Z,100737.31
2022-08-07T02:36:29.408Z,100728.31
2022-08-07T02:38:32.314Z,100719.91
2022-08-07T02:41:04.048Z,100718.91
2022-08-07T02:43:35.368Z,100710.97
2022-08-07T02:46:07.453Z,100704.59
2022-08-07T02:48:36.678Z,100699.09
2022-08-07T02:51:41.990Z,100698.72
2022-08-07T02:54:09.308Z,100696.06
2022-08-07T02:56:39.521Z,100687.16
2022-08-07T02:59:10.221Z,100677.41
2022-08-07T03:01:40.085Z,100678.16
2022-08-07T03:04:13.994Z,100679.16
2022-08-07T03:06:44.850Z,100685.22
2022-08-07T03:09:14.765Z,100687.81
2022-08-07T03:12:05.826Z,100690.09
2022-08-07T03:14:37.202Z,100682.72
2022-08-07T03:17:05.043Z,100691.41
2022-08-07T03:19:36.913Z,100683.06
2022-08-07T03:22:07.620Z,100674.00
2022-08-07T03:24:47.046Z,100683.59
2022-08-07T03:27:15.075Z,100688.50
2022-08-07T03:30:01.478Z,100686.88
2022-08-07T03:32:37.540Z,100688.50
2022-08-07T03:35:17.413Z,100689.66
2022-08-07T03:37:55.003Z,100691.81
2022-08-07T03:40:35.966Z,100684.44
2022-08-07T03:43:13.890Z,100699.25
2022-08-07T03:45:47.622Z,100705.41
2022-08-07T03:48:17.651Z,100708.91
2022-08-07T03:50:56.234Z,100702.59
2022-08-07T03:54:02.054Z,100703.72
2022-08-07T03:56:32.696Z,100719.44
2022-08-07T03:59:08.301Z,100724.75
2022-08-07T04:01:46.397Z,100713.63
2022-08-07T04:04:17.844Z,100729.56
2022-08-07T04:06:51.672Z,100736.53
2022-08-07T04:09:23.046Z,100739.97
2022-08-07T04:12:26.521Z,100737.47
2022-08-07T04:14:43.888Z,100741.97
2022-08-07T04:17:21.301Z,100743.50
2022-08-07T04:19:54.199Z,100754.84
2022-08-07T04:22:27.661Z,100760.72
2022-08-07T04:25:01.494Z,100768.00
2022-08-07T04:27:35.452Z,100777.53
2022-08-07T04:30:21.395Z,100787.66
2022-08-07T04:33:01.353Z,100785.72
2022-08-07T04:35:38.572Z,100792.53
2022-08-07T04:38:11.539Z,100792.00
2022-08-07T04:40:52.575Z,100791.06
2022-08-07T04:44:11.783Z,100798.22
2022-08-07T04:46:29.486Z,100799.34
2022-08-07T04:49:17.832Z,100810.56
2022-08-07T04:52:25.213Z,100828.06
2022-08-07T04:58:15.791Z,100829.66
2022-08-07T04:58:33.815Z,100843.66
2022-08-07T05:01:18.912Z,100850.03
2022-08-07T05:04:08.015Z,100866.03
2022-08-07T05:06:51.156Z,100870.00
2022-08-07T05:09:45.336Z,100891.91
2022-08-07T05:12:26.534Z,100909.69
2022-08-07T05:15:21.745Z,100916.09
2022-08-07T05:18:06.155Z,100917.69
2022-08-07T05:20:51.280Z,100925.19
2022-08-07T05:23:30.177Z,100932.69
2022-08-07T05:26:11.611Z,100934.97
2022-08-07T05:28:49.953Z,100936.50
2022-08-07T05:31:21.114Z,100942.63
2022-08-07T05:34:04.811Z,100934.47
2022-08-07T05:36:39.236Z,100927.59
2022-08-07T05:40:06.066Z,100933.66
2022-08-07T05:42:07.541Z,100967.34
2022-08-07T05:44:46.437Z,100973.94
2022-08-07T05:47:20.105Z,100973.09
2022-08-07T05:49:51.480Z,100959.69
2022-08-07T05:52:32.348Z,100952.06
2022-08-07T05:55:10.870Z,100951.72
2022-08-07T05:57:43.035Z,100955.63
2022-08-07T06:00:16.580Z,100960.63
2022-08-07T06:02:53.288Z,100955.13
2022-08-07T06:05:25.894Z,100946.47
2022-08-07T06:08:13.717Z,100943.31
2022-08-07T06:10:51.137Z,100941.56
2022-08-07T06:13:31.482Z,100939.00
2022-08-07T06:16:08.771Z,100935.81
2022-08-07T06:18:40.294Z,100941.16
2022-08-07T06:22:11.798Z,100930.72
2022-08-07T06:24:46.244Z,100937.34
2022-08-07T06:26:48.176Z,100928.78
2022-08-07T06:29:17.040Z,100929.88
2022-08-07T06:31:50.313Z,100936.72
2022-08-07T06:34:23.964Z,100941.91
2022-08-07T06:37:02.646Z,100947.56
2022-08-07T06:40:17.673Z,100941.69
2022-08-07T06:42:33.180Z,100944.28
2022-08-07T06:45:17.928Z,100948.84
2022-08-07T06:47:58.422Z,100960.56
2022-08-07T06:50:33.304Z,100953.63
2022-08-07T06:53:04.577Z,100950.78
2022-08-07T06:55:53.777Z,100951.13
2022-08-07T06:58:27.485Z,100942.56
2022-08-07T07:01:03.060Z,100933.66
2022-08-07T07:03:49.048Z,100925.41
2022-08-07T07:06:26.125Z,100921.63
2022-08-07T07:08:55.107Z,100923.88
2022-08-07T07:12:09.167Z,100920.09
2022-08-07T07:14:13.993Z,100920.84
2022-08-07T07:16:49.758Z,100913.47
2022-08-07T07:19:55.653Z,100916.97
2022-08-07T07:22:35.635Z,100915.88
2022-08-07T07:25:02.810Z,100913.72
2022-08-07T07:28:42.549Z,100911.09
2022-08-07T07:31:12.773Z,100904.06
2022-08-07T07:33:49.062Z,100901.22
2022-08-07T07:36:25.297Z,100894.28
2022-08-07T07:39:01.248Z,100898.59
2022-08-07T07:41:30.951Z,100890.66
2022-08-07T07:44:25.842Z,100883.75
2022-08-07T07:47:02.206Z,100885.44
2022-08-07T07:50:32.676Z,100886.63
2022-08-07T07:52:32.772Z,100890.13
2022-08-07T07:55:01.222Z,100886.56
2022-08-07T07:57:50.231Z,100881.91
2022-08-07T08:00:29.004Z,100883.94
2022-08-07T08:03:05.752Z,100881.00
2022-08-07T08:05:50.532Z,100882.50
2022-08-07T08:08:34.372Z,100875.25
2022-08-07T08:11:08.839Z,100872.78
2022-08-07T08:13:53.371Z,100880.25
2022-08-07T08:16:37.915Z,100878.38
2022-08-07T08:19:17.719Z,100881.53
2022-08-07T08:22:14.505Z,100883.28
2022-08-07T08:25:18.643Z,100877.31
2022-08-07T08:27:57.424Z,100880.03
2022-08-07T08:30:31.962Z,100880.13
2022-08-07T08:33:02.108Z,100880.22
2022-08-07T08:35:39.504Z,100879.47
2022-08-07T08:38:15.780Z,100872.59
2022-08-07T08:41:05.387Z,100876.91
2022-08-07T08:43:41.874Z,100878.78
2022-08-07T08:46:17.041Z,100888.78
2022-08-07T08:49:05.190Z,100889.66
2022-08-07T08:51:49.527Z,100892.38
2022-08-07T08:54:26.393Z,100892.88
2022-08-07T08:56:54.704Z,100891.41
2022-08-07T08:59:42.067Z,100900.56
2022-08-07T09:02:36.617Z,100892.91
2022-08-07T09:05:18.545Z,100894.91
2022-08-07T09:07:57.968Z,100901.19
2022-08-07T09:10:29.706Z,100892.66
2022-08-07T09:13:03.554Z,100892.66
2022-08-07T09:16:22.441Z,100893.28
2022-08-07T09:18:47.291Z,100889.97
2022-08-07T09:21:34.395Z,100890.63
2022-08-07T09:24:34.081Z,100896.19
2022-08-07T09:27:25.181Z,100888.03
2022-08-07T09:30:07.987Z,100890.28
2022-08-07T09:32:45.308Z,100890.16
2022-08-07T09:36:01.292Z,100891.06
2022-08-07T09:38:23.190Z,100892.78
2022-08-07T09:40:50.465Z,100883.03
2022-08-07T09:44:03.602Z,100881.78
2022-08-07T09:47:52.677Z,100884.25
2022-08-07T09:50:02.068Z,100876.69
2022-08-07T09:52:34.197Z,100873.84
2022-08-07T09:55:17.312Z,100869.66
2022-08-07T09:58:15.234Z,100869.25
2022-08-07T10:01:03.536Z,100868.38
2022-08-07T10:04:05.570Z,100866.19
2022-08-07T10:06:49.146Z,100871.50
2022-08-07T10:09:42.564Z,100867.91
2022-08-07T10:12:26.502Z,100859.13
2022-08-07T10:15:18.783Z,100855.75
2022-08-07T10:18:01.433Z,100858.50
2022-08-07T10:20:50.353Z,100854.28
2022-08-07T10:24:06.552Z,100847.56
2022-08-07T10:26:42.591Z,100839.53
2022-08-07T10:29:11.837Z,100842.41
2022-08-07T10:32:02.640Z,100834.22
2022-08-07T10:35:00.912Z,100830.28
2022-08-07T10:38:00.120Z,100820.56
2022-08-07T10:44:33.823Z,100821.19
2022-08-07T10:47:53.339Z,100811.88
2022-08-07T10:50:26.127Z,100811.06
2022-08-07T10:53:12.601Z,100808.34
2022-08-07T10:55:58.257Z,100806.72
2022-08-07T10:58:46.046Z,100806.94
2022-08-07T11:01:23.947Z,100809.22
2022-08-07T11:04:05.350Z,100814.50
2022-08-07T11:06:54.230Z,100812.22
2022-08-07T11:10:08.798Z,100807.53
2022-08-07T11:12:32.176Z,100809.91
2022-08-07T11:15:02.686Z,100812.94
2022-08-07T11:17:45.861Z,100806.00
2022-08-07T11:20:24.899Z,100801.59
2022-08-07T11:23:26.224Z,100798.78
2022-08-07T11:26:13.144Z,100796.56
2022-08-07T11:29:02.046Z,100791.13
2022-08-07T11:31:45.087Z,100788.66
2022-08-07T11:34:31.418Z,100780.03
2022-08-07T11:37:02.421Z,100785.97
2022-08-07T11:40:00.372Z,100781.09
2022-08-07T11:42:47.408Z,100775.50
2022-08-07T11:45:23.940Z,100782.03
2022-08-07T11:48:40.635Z,100782.75
2022-08-07T11:51:41.222Z,100781.28
2022-08-07T11:54:10.356Z,100787.50
2022-08-07T11:56:56.950Z,100774.09
2022-08-07T12:00:12.561Z,100772.78
2022-08-07T12:02:20.875Z,100767.47
2022-08-07T12:05:41.113Z,100765.16
2022-08-07T12:08:25.772Z,100768.22
2022-08-07T12:11:08.435Z,100756.28
2022-08-07T12:13:52.237Z,100755.69
2022-08-07T12:16:30.119Z,100748.91
2022-08-07T12:19:22.194Z,100744.44
2022-08-07T12:22:37.425Z,100739.66
2022-08-07T12:26:22.096Z,100739.78
2022-08-07T12:28:11.364Z,100737.44
2022-08-07T12:30:41.278Z,100730.38
2022-08-07T12:33:23.518Z,100731.13
2022-08-07T12:35:59.038Z,100714.88
2022-08-07T12:38:42.900Z,100721.56
2022-08-07T12:41:11.685Z,100716.59
2022-08-07T12:44:02.451Z,100718.09
2022-08-07T12:46:40.242Z,100715.06
2022-08-07T12:49:48.532Z,100706.75
2022-08-07T12:52:18.219Z,100712.84
2022-08-07T12:54:54.615Z,100718.28
2022-08-07T12:57:25.779Z,100707.78
2022-08-07T12:59:59.485Z,100710.34
2022-08-07T13:02:49.496Z,100706.06
2022-08-07T13:06:04.013Z,100704.81
2022-08-07T13:08:23.439Z,100700.75
2022-08-07T13:10:55.960Z,100684.00
2022-08-07T13:13:48.717Z,100682.94
2022-08-07T13:16:17.582Z,100676.00
2022-08-07T13:19:00.937Z,100674.41
2022-08-07T13:21:57.433Z,100670.31
2022-08-07T13:24:34.205Z,100664.47
2022-08-07T13:27:12.735Z,100666.03
2022-08-07T13:29:52.617Z,100656.06
2022-08-07T13:32:46.057Z,100647.53
2022-08-07T13:36:00.888Z,100644.09
2022-08-07T13:38:24.549Z,100640.59
2022-08-07T13:41:02.897Z,100641.38
2022-08-07T13:43:34.449Z,100634.88
2022-08-07T13:46:11.104Z,100631.03
2022-08-07T13:48:59.406Z,100630.44
2022-08-07T13:52:05.454Z,100629.94
2022-08-07T13:54:16.429Z,100627.19
2022-08-07T13:56:55.828Z,100628.38
2022-08-07T13:59:27.618Z,100627.19
2022-08-07T14:02:10.648Z,100620.34
2022-08-07T14:04:50.329Z,100608.53
2022-08-07T14:07:27.810Z,100606.00
2022-08-07T14:10:02.571Z,100603.66
2022-08-07T14:12:54.939Z,100604.94
2022-08-07T14:15:32.018Z,100604.44
2022-08-07T14:18:24.467Z,100594.69
2022-08-07T14:21:08.036Z,100595.38
2022-08-07T14:24:00.303Z,100595.22
2022-08-07T14:26:32.896Z,100589.38
2022-08-07T14:29:08.606Z,100585.97
2022-08-07T14:31:56.084Z,100582.16
2022-08-07T14:34:29.559Z,100576.69
2022-08-07T14:36:59.438Z,100577.06
2022-08-07T14:40:17.024Z,100588.03
2022-08-07T14:42:23.313Z,100576.44
2022-08-07T14:44:59.554Z,100578.53
2022-08-07T14:47:31.567Z,100580.97
2022-08-07T14:50:05.149Z,100584.75
2022-08-07T14:52:34.212Z,100575.75
2022-08-07T14:55:03.125Z,100578.94
2022-08-07T15:03:18.821Z,100581.06
2022-08-07T15:05:54.148Z,100584.34
2022-08-07T15:08:33.864Z,100580.03
2022-08-07T15:11:09.967Z,100576.44
2022-08-07T15:14:01.223Z,100575.78
2022-08-07T15:16:40.253Z,100583.63
2022-08-07T15:20:30.904Z,100582.78
2022-08-07T15:25:18.536Z,100600.84
2022-08-07T15:31:04.517Z,100600.50
2022-08-07T15:33:33.564Z,100598.09
2022-08-07T15:36:05.387Z,100606.00
2022-08-07T15:38:51.980Z,100601.00
2022-08-07T15:42:43.862Z,100605.63
2022-08-07T15:44:17.294Z,100598.69
2022-08-07T15:46:51.726Z,100595.38
2022-08-07T15:49:25.232Z,100602.03
2022-08-07T15:54:26.485Z,100598.63
2022-08-07T15:56:59.728Z,100593.81
2022-08-07T15:59:39.972Z,100594.78
2022-08-07T16:02:23.692Z,100593.81
2022-08-07T16:04:55.643Z,100582.44
2022-08-07T16:08:30.742Z,100588.06
2022-08-07T16:10:16.745Z,100583.91
2022-08-07T16:13:17.430Z,100586.88
2022-08-07T16:15:57.903Z,100586.66
2022-08-07T16:18:43.537Z,100584.09
2022-08-07T16:22:01.226Z,100575.16
2022-08-07T16:24:34.585Z,100576.66
2022-08-07T16:27:18.667Z,100572.44
2022-08-07T16:30:30.116Z,100571.50
2022-08-07T16:34:02.601Z,100572.16
2022-08-07T16:36:19.954Z,100574.72
2022-08-07T16:39:01.458Z,100565.50
2022-08-07T16:41:48.558Z,100565.50
2022-08-07T16:45:14.161Z,100565.78
2022-08-07T16:50:36.231Z,100566.19
2022-08-07T16:53:20.611Z,100559.94
2022-08-07T16:55:51.965Z,100557.28
2022-08-07T16:58:33.681Z,100558.91
2022-08-07T17:01:16.771Z,100560.63
2022-08-07T17:03:59.864Z,100555.81
2022-08-07T17:06:45.867Z,100550.47
2022-08-07T17:10:07.354Z,100560.28
2022-08-07T17:12:33.781Z,100566.97
2022-08-07T17:15:16.004Z,100563.31
2022-08-07T17:17:47.613Z,100558.22
2022-08-07T17:20:30.914Z,100559.78
2022-08-07T17:23:17.131Z,100553.06
2022-08-07T17:26:23.298Z,100553.94
2022-08-07T17:29:04.747Z,100565.97
2022-08-07T17:31:35.071Z,100566.28
2022-08-07T17:34:34.182Z,100570.03
2022-08-07T17:37:09.617Z,100575.44
2022-08-07T17:40:05.448Z,100570.53
2022-08-07T17:42:35.803Z,100564.47
2022-08-07T17:45:43.216Z,100574.56
2022-08-07T17:48:12.799Z,100577.03
2022-08-07T17:51:01.634Z,100580.34
2022-08-07T17:53:59.998Z,100573.16
2022-08-07T17:56:31.479Z,100572.19
2022-08-07T17:59:03.539Z,100569.91
2022-08-07T18:01:37.327Z,100580.72
2022-08-07T18:04:08.086Z,100588.03
2022-08-07T18:06:47.969Z,100581.81
2022-08-07T18:09:48.333Z,100566.72
2022-08-07T18:12:33.247Z,100566.16
2022-08-07T18:15:01.541Z,100572.97
2022-08-07T18:18:47.642Z,100571.25
2022-08-07T18:21:11.507Z,100576.88
2022-08-07T18:23:43.017Z,100576.25
2022-08-07T18:26:14.898Z,100578.81
2022-08-07T18:29:06.674Z,100574.91
2022-08-07T18:32:12.771Z,100567.25
2022-08-07T18:35:00.556Z,100583.97
2022-08-07T18:38:58.645Z,100583.78
2022-08-07T18:40:39.870Z,100602.53
2022-08-07T18:43:37.203Z,100602.97
2022-08-07T18:46:25.245Z,100615.25
2022-08-07T18:50:31.057Z,100627.78
2022-08-07T18:52:35.179Z,100635.94
2022-08-07T18:55:40.938Z,100645.69
2022-08-07T18:58:15.484Z,100656.44
2022-08-07T19:00:53.705Z,100658.19
2022-08-07T19:03:42.751Z,100660.66
2022-08-07T19:06:17.141Z,100666.84
2022-08-07T19:09:54.745Z,100670.69
2022-08-07T19:12:17.946Z,100673.91
2022-08-07T19:14:51.067Z,100682.97
2022-08-07T19:17:58.854Z,100680.22
2022-08-07T19:20:28.853Z,100688.56
2022-08-07T19:23:01.992Z,100693.16
2022-08-07T19:26:23.812Z,100685.53
2022-08-07T19:30:57.198Z,100684.38
2022-08-07T19:31:41.722Z,100678.47
2022-08-07T19:34:14.557Z,100688.94
2022-08-07T19:37:09.816Z,100698.44
2022-08-07T19:39:57.810Z,100698.00
2022-08-07T19:42:40.523Z,100695.41
2022-08-07T19:46:09.242Z,100694.84
2022-08-07T19:48:03.258Z,100692.25
2022-08-07T19:50:44.241Z,100705.63
2022-08-07T19:54:32.521Z,100703.75
2022-08-07T19:56:06.649Z,100696.13
2022-08-07T19:58:50.411Z,100683.78
2022-08-07T20:01:21.587Z,100680.22
2022-08-07T20:03:53.165Z,100683.78
2022-08-07T20:06:28.501Z,100673.03
2022-08-07T20:09:02.929Z,100673.88
2022-08-07T20:12:21.957Z,100674.44
2022-08-07T20:14:31.635Z,100678.19
2022-08-07T20:17:00.232Z,100679.75
2022-08-07T20:19:48.074Z,100663.53
2022-08-07T20:22:29.053Z,100664.09
2022-08-07T20:25:12.875Z,100662.97
2022-08-07T20:27:54.367Z,100661.66
2022-08-07T20:30:31.561Z,100655.06
2022-08-07T20:33:00.162Z,100655.50
2022-08-07T20:35:51.740Z,100652.16
2022-08-07T20:38:22.263Z,100659.09
2022-08-07T20:40:53.442Z,100660.94
2022-08-07T20:43:25.302Z,100651.59
2022-08-07T20:46:26.441Z,100650.53
2022-08-07T20:49:53.936Z,100657.13
2022-08-07T20:51:36.043Z,100647.81
2022-08-07T20:54:11.985Z,100652.84
2022-08-07T20:56:46.260Z,100650.28
2022-08-07T21:00:05.365Z,100639.75
2022-08-07T21:02:23.068Z,100644.66
2022-08-07T21:04:54.947Z,100639.34
2022-08-07T21:07:25.033Z,100640.47
2022-08-07T21:10:00.448Z,100651.50
2022-08-07T21:12:30.949Z,100660.56
2022-08-07T21:14:59.355Z,100654.78
2022-08-07T21:18:01.772Z,100657.41
2022-08-07T21:20:29.599Z,100652.06
2022-08-07T21:22:59.374Z,100661.84
2022-08-07T21:25:44.623Z,100653.34
2022-08-07T21:28:48.053Z,100667.47
2022-08-07T21:31:24.852Z,100667.56
2022-08-07T21:34:34.136Z,100675.88
2022-08-07T21:37:09.458Z,100682.28
2022-08-07T21:39:46.757Z,100690.59
2022-08-07T21:42:49.303Z,100691.91
2022-08-07T21:46:04.781Z,100698.28
2022-08-07T21:48:27.616Z,100697.31
2022-08-07T21:51:19.628Z,100700.63
2022-08-07T21:53:54.977Z,100704.72
2022-08-07T21:56:40.410Z,100710.97
2022-08-07T21:59:26.000Z,100719.22
2022-08-07T22:02:10.123Z,100723.09
2022-08-07T22:04:51.199Z,100718.63
2022-08-07T22:07:23.267Z,100725.31
2022-08-07T22:10:05.255Z,100723.00
2022-08-07T22:12:45.727Z,100732.31
2022-08-07T22:16:43.937Z,100732.97
2022-08-07T22:18:09.747Z,100739.13
2022-08-07T22:20:40.506Z,100742.13
2022-08-07T22:23:13.847Z,100741.59
2022-08-07T22:25:57.909Z,100739.56
2022-08-07T22:28:31.513Z,100746.94
2022-08-07T22:31:06.795Z,100752.41
2022-08-07T22:33:56.510Z,100750.78
2022-08-07T22:36:46.483Z,100753.41
2022-08-07T22:39:35.480Z,100749.53
2022-08-07T22:42:25.963Z,100740.63
2022-08-07T22:44:59.853Z,100744.47
2022-08-07T22:47:52.283Z,100745.41
2022-08-07T22:50:38.870Z,100729.31
2022-08-07T22:53:19.142Z,100731.13
2022-08-07T22:56:08.585Z,100725.09
2022-08-07T22:58:37.687Z,100733.78
2022-08-07T23:01:17.926Z,100737.56
2022-08-07T23:03:58.257Z,100737.16
2022-08-07T23:06:27.205Z,100740.81
2022-08-07T23:10:04.823Z,100740.50
2022-08-07T23:11:50.943Z,100743.47
2022-08-07T23:14:29.430Z,100742.59
2022-08-07T23:16:58.356Z,100732.09
2022-08-07T23:20:03.695Z,100732.44
2022-08-07T23:22:43.188Z,100738.09
2022-08-07T23:25:32.997Z,100741.16
2022-08-07T23:28:21.280Z,100746.31
2022-08-07T23:31:42.682Z,100749.19
2022-08-07T23:34:37.506Z,100756.63
2022-08-07T23:37:25.467Z,100751.19
2022-08-07T23:39:56.796Z,100752.56
2022-08-07T23:42:30.448Z,100741.59
2022-08-07T23:45:32.828Z,100739.28
2022-08-07T23:48:30.254Z,100743.16
2022-08-07T23:51:02.886Z,100750.09
2022-08-07T23:53:54.033Z,100753.16
2022-08-07T23:56:35.072Z,100758.84
2022-08-07T23:59:10.429Z,100754.75
